createdAt,value
2023-08-16T00:00:40.081Z,94.15
2023-08-16T00:03:08.377Z,95.88
2023-08-16T00:05:37.424Z,94.81
2023-08-16T00:08:05.290Z,93.69
2023-08-16T00:10:32.817Z,94.27
2023-08-16T00:13:00.879Z,93.95
2023-08-16T00:15:28.639Z,94.71
2023-08-16T00:17:58.194Z,95.90
2023-08-16T00:20:27.867Z,97.22
2023-08-16T00:22:56.042Z,98.35
2023-08-16T00:25:24.161Z,98.67
2023-08-16T00:27:51.995Z,99.99
2023-08-16T00:30:23.779Z,100.00
2023-08-16T00:32:52.249Z,100.00
2023-08-16T00:35:21.691Z,99.64
2023-08-16T00:37:49.944Z,98.12
2023-08-16T00:40:17.355Z,97.27
2023-08-16T00:42:47.556Z,98.21
2023-08-16T00:45:15.330Z,99.31
2023-08-16T00:47:43.138Z,98.48
2023-08-16T00:50:10.819Z,98.04
2023-08-16T00:52:39.594Z,99.20
2023-08-16T00:55:08.249Z,100.00
2023-08-16T00:57:36.390Z,100.00
2023-08-16T01:00:06.331Z,100.00
2023-08-16T01:02:34.245Z,98.67
2023-08-16T01:05:01.901Z,98.98
2023-08-16T01:07:29.367Z,100.00
2023-08-16T01:09:57.262Z,100.00
2023-08-16T01:12:25.687Z,100.00
2023-08-16T01:15:04.921Z,100.00
2023-08-16T01:17:33.289Z,100.00
2023-08-16T01:20:03.570Z,100.00
2023-08-16T01:22:52.614Z,100.00
2023-08-16T01:25:26.965Z,100.00
2023-08-16T01:27:55.147Z,100.00
2023-08-16T01:30:23.751Z,100.00
2023-08-16T01:32:51.359Z,100.00
2023-08-16T01:35:19.045Z,100.00
2023-08-16T01:37:46.830Z,100.00
2023-08-16T01:40:14.716Z,100.00
2023-08-16T01:42:49.921Z,100.00
2023-08-16T01:45:18.962Z,100.00
2023-08-16T01:47:47.072Z,100.00
2023-08-16T01:50:14.908Z,100.00
2023-08-16T01:52:42.924Z,100.00
2023-08-16T01:55:10.570Z,100.00
2023-08-16T01:57:38.405Z,100.00
2023-08-16T02:00:07.076Z,100.00
2023-08-16T02:02:42.406Z,100.00
2023-08-16T02:05:10.654Z,100.00
2023-08-16T02:07:39.150Z,100.00
2023-08-16T02:10:06.614Z,100.00
2023-08-16T02:12:35.725Z,100.00
2023-08-16T02:15:04.805Z,100.00
2023-08-16T02:17:33.646Z,100.00
2023-08-16T02:20:00.993Z,100.00
2023-08-16T02:22:40.733Z,100.00
2023-08-16T02:25:12.373Z,100.00
2023-08-16T02:27:41.273Z,100.00
2023-08-16T02:30:09.693Z,100.00
2023-08-16T02:32:39.698Z,100.00
2023-08-16T02:35:07.118Z,100.00
2023-08-16T02:37:35.084Z,100.00
2023-08-16T02:40:04.985Z,100.00
2023-08-16T02:42:32.267Z,100.00
2023-08-16T02:45:00.044Z,100.00
2023-08-16T02:47:28.302Z,100.00
2023-08-16T02:49:55.564Z,100.00
2023-08-16T02:52:23.649Z,100.00
2023-08-16T02:54:52.240Z,100.00
2023-08-16T02:57:19.745Z,100.00
2023-08-16T02:59:47.798Z,100.00
2023-08-16T03:02:15.946Z,100.00
2023-08-16T03:04:44.463Z,100.00
2023-08-16T03:07:12.443Z,100.00
2023-08-16T03:09:40.653Z,100.00
2023-08-16T03:12:08.504Z,100.00
2023-08-16T03:14:36.321Z,100.00
2023-08-16T03:17:04.537Z,100.00
2023-08-16T03:19:32.639Z,100.00
2023-08-16T03:22:00.462Z,100.00
2023-08-16T03:24:29.087Z,100.00
2023-08-16T03:26:56.608Z,100.00
2023-08-16T03:29:24.857Z,100.00
2023-08-16T03:31:52.451Z,100.00
2023-08-16T03:34:20.710Z,100.00
2023-08-16T03:36:48.037Z,100.00
2023-08-16T03:39:15.645Z,100.00
2023-08-16T03:41:44.800Z,100.00
2023-08-16T03:44:12.328Z,100.00
2023-08-16T03:46:42.170Z,100.00
2023-08-16T03:49:09.471Z,100.00
2023-08-16T03:51:37.203Z,100.00
2023-08-16T03:54:04.945Z,100.00
2023-08-16T03:56:32.793Z,100.00
2023-08-16T03:59:00.165Z,100.00
2023-08-16T04:01:28.357Z,100.00
2023-08-16T04:03:57.219Z,100.00
2023-08-16T04:06:24.754Z,100.00
2023-08-16T04:08:52.540Z,100.00
2023-08-16T04:11:20.657Z,100.00
2023-08-16T04:13:48.486Z,100.00
2023-08-16T04:16:18.593Z,100.00
2023-08-16T04:18:46.990Z,100.00
2023-08-16T04:21:16.792Z,100.00
2023-08-16T04:23:44.111Z,100.00
2023-08-16T04:26:12.447Z,100.00
2023-08-16T04:28:40.911Z,100.00
2023-08-16T04:31:08.182Z,100.00
2023-08-16T04:33:37.417Z,100.00
2023-08-16T04:36:05.390Z,100.00
2023-08-16T04:38:33.860Z,100.00
2023-08-16T04:41:01.668Z,100.00
2023-08-16T04:43:30.747Z,100.00
2023-08-16T04:45:58.300Z,100.00
2023-08-16T04:48:26.161Z,100.00
2023-08-16T04:50:54.937Z,100.00
2023-08-16T04:53:23.220Z,100.00
2023-08-16T04:55:50.880Z,100.00
2023-08-16T04:58:18.827Z,100.00
2023-08-16T05:00:46.743Z,100.00
2023-08-16T05:03:14.860Z,100.00
2023-08-16T05:05:42.720Z,100.00
2023-08-16T05:08:10.800Z,98.70
2023-08-16T05:10:39.319Z,99.13
2023-08-16T05:13:07.510Z,100.00
2023-08-16T05:15:36.345Z,93.15
2023-08-16T05:18:04.714Z,95.71
2023-08-16T05:20:32.626Z,96.92
2023-08-16T05:22:59.900Z,99.24
2023-08-16T05:25:27.497Z,95.58
2023-08-16T05:27:59.768Z,98.26
2023-08-16T05:30:27.842Z,97.24
2023-08-16T05:32:56.075Z,96.39
2023-08-16T05:35:24.089Z,94.35
2023-08-16T05:37:51.916Z,95.56
2023-08-16T05:40:20.390Z,95.37
2023-08-16T05:42:48.722Z,94.96
2023-08-16T05:45:17.282Z,91.80
2023-08-16T05:47:45.430Z,92.23
2023-08-16T05:50:12.764Z,92.21
2023-08-16T05:52:40.032Z,92.08
2023-08-16T05:55:09.288Z,90.79
2023-08-16T05:57:36.794Z,87.18
2023-08-16T06:00:05.053Z,79.54
2023-08-16T06:02:39.973Z,67.37
2023-08-16T06:05:07.852Z,61.64
2023-08-16T06:07:35.206Z,65.71
2023-08-16T06:10:06.327Z,64.27
2023-08-16T06:12:34.592Z,63.12
2023-08-16T06:15:04.284Z,63.78
2023-08-16T06:17:31.648Z,69.00
2023-08-16T06:20:02.176Z,71.29
2023-08-16T06:22:30.609Z,72.10
2023-08-16T06:24:57.918Z,72.00
2023-08-16T06:27:26.921Z,70.81
2023-08-16T06:29:54.573Z,69.47
2023-08-16T06:32:22.591Z,64.77
2023-08-16T06:34:50.138Z,63.88
2023-08-16T06:37:17.410Z,69.79
2023-08-16T06:39:44.715Z,70.24
2023-08-16T06:42:14.842Z,73.30
2023-08-16T06:44:45.949Z,77.08
2023-08-16T06:47:13.616Z,82.41
2023-08-16T06:49:42.049Z,83.15
2023-08-16T06:52:09.803Z,86.82
2023-08-16T06:54:37.648Z,83.84
2023-08-16T06:57:10.345Z,82.72
2023-08-16T06:59:49.113Z,90.32
2023-08-16T07:02:16.969Z,93.15
2023-08-16T07:04:46.713Z,92.00
2023-08-16T07:07:14.528Z,93.17
2023-08-16T07:09:43.464Z,94.94
2023-08-16T07:12:12.905Z,92.59
2023-08-16T07:14:41.178Z,91.36
2023-08-16T07:17:10.366Z,90.27
2023-08-16T07:19:38.177Z,90.77
2023-08-16T07:22:06.586Z,90.22
2023-08-16T07:24:35.138Z,88.85
2023-08-16T07:27:04.379Z,89.16
2023-08-16T07:29:31.685Z,91.91
2023-08-16T07:31:59.098Z,91.33
2023-08-16T07:34:28.878Z,92.40
2023-08-16T07:36:56.260Z,92.85
2023-08-16T07:39:25.773Z,90.76
2023-08-16T07:41:57.743Z,87.98
2023-08-16T07:44:29.234Z,86.46
2023-08-16T07:46:56.865Z,87.10
2023-08-16T07:49:24.147Z,85.71
2023-08-16T07:51:51.480Z,87.43
2023-08-16T07:54:19.133Z,85.82
2023-08-16T07:56:46.811Z,88.56
2023-08-16T07:59:15.470Z,86.60
2023-08-16T08:01:46.650Z,85.04
2023-08-16T08:04:14.389Z,83.64
2023-08-16T08:06:45.838Z,81.69
2023-08-16T08:09:13.495Z,81.56
2023-08-16T08:11:41.120Z,80.29
2023-08-16T08:14:09.189Z,78.39
2023-08-16T08:16:37.751Z,75.64
2023-08-16T08:19:06.629Z,78.43
2023-08-16T08:21:33.914Z,80.45
2023-08-16T08:24:02.612Z,79.66
2023-08-16T08:26:30.670Z,77.90
2023-08-16T08:28:59.615Z,76.97
2023-08-16T08:31:26.994Z,76.22
2023-08-16T08:33:54.580Z,75.77
2023-08-16T08:36:22.669Z,78.72
2023-08-16T08:38:50.430Z,75.61
2023-08-16T08:41:30.909Z,77.10
2023-08-16T08:44:06.268Z,72.52
2023-08-16T08:46:33.891Z,72.73
2023-08-16T08:52:25.593Z,72.17
2023-08-16T08:54:54.578Z,74.87
2023-08-16T08:57:22.845Z,77.43
2023-08-16T08:59:51.017Z,74.20
2023-08-16T09:02:19.340Z,76.43
2023-08-16T09:04:48.910Z,76.96
2023-08-16T09:07:16.886Z,76.43
2023-08-16T09:09:49.622Z,77.52
2023-08-16T09:12:20.304Z,76.22
2023-08-16T09:14:49.084Z,72.19
2023-08-16T09:17:17.089Z,69.40
2023-08-16T09:19:46.244Z,65.33
2023-08-16T09:22:13.884Z,61.30
2023-08-16T09:24:43.805Z,61.66
2023-08-16T09:27:12.107Z,59.31
2023-08-16T09:29:43.814Z,57.42
2023-08-16T09:32:22.105Z,58.53
2023-08-16T09:34:55.812Z,58.18
2023-08-16T09:37:25.964Z,56.27
2023-08-16T09:39:58.406Z,55.19
2023-08-16T09:42:36.133Z,57.58
2023-08-16T09:45:05.482Z,56.58
2023-08-16T09:50:07.706Z,58.44
2023-08-16T09:52:36.540Z,65.43
2023-08-16T09:55:05.176Z,61.37
2023-08-16T09:57:33.578Z,56.66
2023-08-16T10:00:01.267Z,54.09
2023-08-16T10:05:02.772Z,53.10
2023-08-16T10:07:30.330Z,52.81
2023-08-16T10:09:58.408Z,56.11
2023-08-16T10:12:27.670Z,55.05
2023-08-16T10:14:57.817Z,55.11
2023-08-16T10:20:48.085Z,59.13
2023-08-16T10:23:18.104Z,61.60
2023-08-16T10:25:46.635Z,59.59
2023-08-16T10:28:19.772Z,57.88
2023-08-16T10:33:34.369Z,57.59
2023-08-16T10:36:02.404Z,56.90
2023-08-16T10:38:39.799Z,53.16
2023-08-16T10:41:15.774Z,50.97
2023-08-16T10:43:57.158Z,50.84
2023-08-16T10:46:32.525Z,50.39
2023-08-16T10:49:02.568Z,52.48
2023-08-16T10:51:31.674Z,50.41
2023-08-16T10:54:00.590Z,52.74
2023-08-16T10:56:45.824Z,52.58
2023-08-16T10:59:14.230Z,52.77
2023-08-16T11:01:45.857Z,57.06
2023-08-16T11:04:14.883Z,56.10
2023-08-16T11:06:55.685Z,59.05
2023-08-16T11:09:31.816Z,54.97
2023-08-16T11:12:08.092Z,54.66
2023-08-16T11:14:37.158Z,57.15
2023-08-16T11:17:05.420Z,54.63
2023-08-16T11:19:35.188Z,55.58
2023-08-16T11:22:06.757Z,52.18
2023-08-16T11:24:35.727Z,53.70
2023-08-16T11:27:04.857Z,52.99
2023-08-16T11:29:35.369Z,55.74
2023-08-16T11:32:03.776Z,52.51
2023-08-16T11:34:34.915Z,51.20
2023-08-16T11:37:02.617Z,53.84
2023-08-16T11:39:31.387Z,54.65
2023-08-16T11:41:58.869Z,54.36
2023-08-16T11:44:26.586Z,53.19
2023-08-16T11:46:55.872Z,52.31
2023-08-16T11:49:23.359Z,53.43
2023-08-16T11:51:52.314Z,55.24
2023-08-16T11:54:22.897Z,52.25
2023-08-16T11:56:52.965Z,53.62
2023-08-16T11:59:30.375Z,51.35
2023-08-16T12:02:06.456Z,52.47
2023-08-16T12:04:34.661Z,49.72
2023-08-16T12:07:02.365Z,50.71
2023-08-16T12:09:31.751Z,51.41
2023-08-16T12:12:02.530Z,51.49
2023-08-16T12:14:30.255Z,49.67
2023-08-16T12:16:58.124Z,50.63
2023-08-16T12:19:25.794Z,51.32
2023-08-16T12:21:54.482Z,50.49
2023-08-16T12:24:21.880Z,51.34
2023-08-16T12:26:50.377Z,52.21
2023-08-16T12:29:18.612Z,50.99
2023-08-16T12:31:48.182Z,50.58
2023-08-16T12:34:15.942Z,51.76
2023-08-16T12:36:43.420Z,50.88
2023-08-16T12:39:11.014Z,51.06
2023-08-16T12:41:39.233Z,50.62
2023-08-16T12:44:07.173Z,49.34
2023-08-16T12:46:34.978Z,49.27
2023-08-16T12:49:03.282Z,48.16
2023-08-16T12:51:33.767Z,49.00
2023-08-16T12:54:01.082Z,49.85
2023-08-16T12:56:29.798Z,50.34
2023-08-16T12:58:57.679Z,49.30
2023-08-16T13:10:55.766Z,50.52
2023-08-16T13:16:08.869Z,50.14
2023-08-16T13:23:55.201Z,49.41
2023-08-16T13:26:39.045Z,48.09
2023-08-16T13:29:10.953Z,49.19
2023-08-16T13:32:01.390Z,48.34
2023-08-16T13:39:43.062Z,47.84
2023-08-16T13:45:16.130Z,47.17
2023-08-16T13:47:41.816Z,46.35
2023-08-16T13:50:13.997Z,46.63
2023-08-16T13:52:48.406Z,46.77
2023-08-16T13:55:19.701Z,46.55
2023-08-16T13:58:03.086Z,47.02
2023-08-16T14:00:31.234Z,47.97
2023-08-16T14:03:01.476Z,48.15
2023-08-16T14:05:28.771Z,47.74
2023-08-16T14:07:56.219Z,48.73
2023-08-16T14:10:24.011Z,46.28
2023-08-16T14:12:53.773Z,47.11
2023-08-16T14:15:21.219Z,49.25
2023-08-16T14:17:48.920Z,48.95
2023-08-16T14:20:16.287Z,48.71
2023-08-16T14:22:44.085Z,47.95
2023-08-16T14:25:11.886Z,48.14
2023-08-16T14:27:39.167Z,48.63
2023-08-16T14:30:07.783Z,48.45
2023-08-16T14:32:35.698Z,47.12
2023-08-16T14:35:03.956Z,47.00
2023-08-16T14:37:32.048Z,47.69
2023-08-16T14:40:00.500Z,47.22
2023-08-16T14:42:28.415Z,46.09
2023-08-16T14:44:56.739Z,47.15
2023-08-16T14:47:24.551Z,46.68
2023-08-16T14:49:53.983Z,48.06
2023-08-16T14:52:21.498Z,48.02
2023-08-16T14:54:50.959Z,47.83
2023-08-16T14:57:19.594Z,46.14
2023-08-16T14:59:48.083Z,47.91
2023-08-16T15:02:15.674Z,49.98
2023-08-16T15:04:43.337Z,49.37
2023-08-16T15:07:11.527Z,49.59
2023-08-16T15:09:40.442Z,49.38
2023-08-16T15:12:09.711Z,48.97
2023-08-16T15:14:37.723Z,48.08
2023-08-16T15:17:05.424Z,49.29
2023-08-16T15:19:36.617Z,47.74
2023-08-16T15:22:04.416Z,48.65
2023-08-16T15:24:34.657Z,47.19
2023-08-16T15:27:02.445Z,48.39
2023-08-16T15:29:30.119Z,48.21
2023-08-16T15:31:57.952Z,49.21
2023-08-16T15:34:27.246Z,48.83
2023-08-16T15:36:54.709Z,48.25
2023-08-16T15:39:24.004Z,49.68
2023-08-16T15:41:52.132Z,47.91
2023-08-16T15:44:20.003Z,48.25
2023-08-16T15:46:47.664Z,48.38
2023-08-16T15:49:15.056Z,48.66
2023-08-16T15:51:42.380Z,48.86
2023-08-16T15:57:03.151Z,47.99
2023-08-16T15:59:42.665Z,49.05
2023-08-16T16:02:17.175Z,48.72
2023-08-16T16:04:46.591Z,47.81
2023-08-16T16:07:16.340Z,48.18
2023-08-16T16:09:45.505Z,48.48
2023-08-16T16:12:13.787Z,48.27
2023-08-16T16:14:45.007Z,47.46
2023-08-16T16:17:20.630Z,47.35
2023-08-16T16:19:48.715Z,48.45
2023-08-16T16:22:17.951Z,48.00
2023-08-16T16:24:46.446Z,48.80
2023-08-16T16:27:17.184Z,48.22
2023-08-16T16:29:45.609Z,48.17
2023-08-16T16:32:17.040Z,47.92
2023-08-16T16:34:47.713Z,48.73
2023-08-16T16:37:16.834Z,49.35
2023-08-16T16:39:46.545Z,49.81
2023-08-16T16:42:14.791Z,49.52
2023-08-16T16:44:42.978Z,48.74
2023-08-16T16:47:11.571Z,49.06
2023-08-16T16:49:40.132Z,49.38
2023-08-16T16:52:08.801Z,50.21
2023-08-16T16:54:38.427Z,50.91
2023-08-16T16:57:10.553Z,49.94
2023-08-16T16:59:41.626Z,50.06
2023-08-16T17:02:11.490Z,50.53
2023-08-16T17:04:39.370Z,50.34
2023-08-16T17:07:09.606Z,50.39
2023-08-16T17:09:40.503Z,51.39
2023-08-16T17:12:09.478Z,50.92
2023-08-16T17:14:38.724Z,51.49
2023-08-16T17:17:07.675Z,51.33
2023-08-16T17:19:36.435Z,51.30
2023-08-16T17:22:05.001Z,51.85
2023-08-16T17:24:37.198Z,52.09
2023-08-16T17:27:08.691Z,53.08
2023-08-16T17:29:44.242Z,53.40
2023-08-16T17:32:13.651Z,53.57
2023-08-16T17:34:42.834Z,54.54
2023-08-16T17:37:11.495Z,55.78
2023-08-16T17:39:39.573Z,56.76
2023-08-16T17:42:08.897Z,58.00
2023-08-16T17:44:39.350Z,58.69
2023-08-16T17:47:07.814Z,58.90
2023-08-16T17:52:59.906Z,58.55
2023-08-16T17:55:28.614Z,58.71
2023-08-16T17:57:56.820Z,58.88
2023-08-16T18:00:26.707Z,59.52
2023-08-16T18:02:56.807Z,59.51
2023-08-16T18:05:30.861Z,60.65
2023-08-16T18:07:59.420Z,61.28
2023-08-16T18:10:28.173Z,60.05
2023-08-16T18:12:56.137Z,61.53
2023-08-16T18:15:24.242Z,68.16
2023-08-16T18:17:57.557Z,70.57
2023-08-16T18:20:25.583Z,71.89
2023-08-16T18:22:57.309Z,70.57
2023-08-16T18:25:31.161Z,69.34
2023-08-16T18:27:59.427Z,70.75
2023-08-16T18:30:28.443Z,72.51
2023-08-16T18:32:58.626Z,73.31
2023-08-16T18:35:30.193Z,75.97
2023-08-16T18:37:59.258Z,75.66
2023-08-16T18:40:29.025Z,74.70
2023-08-16T18:42:57.254Z,79.25
2023-08-16T18:45:27.776Z,79.94
2023-08-16T18:47:56.881Z,79.53
2023-08-16T18:50:26.197Z,86.25
2023-08-16T18:52:58.082Z,94.01
2023-08-16T18:55:27.432Z,100.00
2023-08-16T18:57:56.235Z,100.00
2023-08-16T19:00:25.353Z,100.00
2023-08-16T19:02:55.027Z,100.00
2023-08-16T19:05:23.344Z,100.00
2023-08-16T19:07:52.512Z,100.00
2023-08-16T19:10:24.934Z,100.00
2023-08-16T19:12:53.918Z,100.00
2023-08-16T19:15:21.922Z,100.00
2023-08-16T19:17:52.236Z,100.00
2023-08-16T19:20:20.667Z,100.00
2023-08-16T19:22:49.438Z,100.00
2023-08-16T19:25:17.921Z,100.00
2023-08-16T19:27:46.888Z,100.00
2023-08-16T19:30:16.404Z,100.00
2023-08-16T19:32:49.037Z,100.00
2023-08-16T19:35:21.599Z,100.00
2023-08-16T19:37:50.481Z,100.00
2023-08-16T19:40:20.354Z,100.00
2023-08-16T19:42:48.565Z,100.00
2023-08-16T19:45:17.482Z,100.00
2023-08-16T19:47:46.048Z,100.00
2023-08-16T19:50:21.360Z,100.00
2023-08-16T19:52:52.199Z,100.00
2023-08-16T19:55:21.327Z,100.00
2023-08-16T19:57:50.708Z,100.00
2023-08-16T20:00:20.547Z,100.00
2023-08-16T20:02:50.531Z,100.00
2023-08-16T20:05:18.738Z,100.00
2023-08-16T20:07:50.539Z,100.00
2023-08-16T20:10:19.276Z,100.00
2023-08-16T20:12:48.203Z,100.00
2023-08-16T20:15:17.618Z,100.00
2023-08-16T20:17:46.786Z,100.00
2023-08-16T20:20:15.591Z,100.00
2023-08-16T20:22:48.564Z,100.00
2023-08-16T20:25:17.698Z,100.00
2023-08-16T20:27:47.606Z,100.00
2023-08-16T20:30:15.942Z,100.00
2023-08-16T20:32:46.526Z,100.00
2023-08-16T20:35:17.283Z,100.00
2023-08-16T20:37:49.025Z,100.00
2023-08-16T20:40:17.582Z,100.00
2023-08-16T20:42:47.362Z,100.00
2023-08-16T20:45:17.106Z,100.00
2023-08-16T20:47:45.701Z,100.00
2023-08-16T20:50:15.437Z,100.00
2023-08-16T20:52:45.280Z,100.00
2023-08-16T20:55:13.473Z,100.00
2023-08-16T20:57:41.906Z,100.00
2023-08-16T21:00:11.392Z,100.00
2023-08-16T21:02:39.403Z,100.00
2023-08-16T21:05:08.002Z,100.00
2023-08-16T21:07:36.225Z,100.00
2023-08-16T21:10:04.487Z,100.00
2023-08-16T21:12:32.316Z,100.00
2023-08-16T21:15:00.462Z,100.00
2023-08-16T21:17:30.708Z,100.00
2023-08-16T21:19:58.862Z,100.00
2023-08-16T21:22:27.400Z,100.00
2023-08-16T21:24:55.215Z,100.00
2023-08-16T21:27:23.588Z,100.00
2023-08-16T21:29:51.950Z,100.00
2023-08-16T21:32:19.790Z,100.00
2023-08-16T21:34:47.589Z,100.00
2023-08-16T21:37:15.821Z,100.00
2023-08-16T21:39:43.591Z,100.00
2023-08-16T21:42:11.408Z,100.00
2023-08-16T21:44:40.849Z,100.00
2023-08-16T21:47:10.299Z,100.00
2023-08-16T21:49:38.086Z,100.00
2023-08-16T21:52:06.206Z,100.00
2023-08-16T21:54:34.061Z,100.00
2023-08-16T21:57:01.371Z,100.00
2023-08-16T21:59:30.517Z,100.00
2023-08-16T22:01:59.227Z,100.00
2023-08-16T22:04:28.014Z,100.00
2023-08-16T22:06:55.845Z,100.00
2023-08-16T22:12:47.364Z,100.00
2023-08-16T22:18:38.565Z,100.00
2023-08-16T22:21:08.137Z,100.00
2023-08-16T22:23:38.454Z,100.00
2023-08-16T22:26:07.882Z,100.00
2023-08-16T22:28:36.222Z,100.00
2023-08-16T22:31:04.123Z,100.00
2023-08-16T22:33:32.247Z,100.00
2023-08-16T22:36:00.018Z,100.00
2023-08-16T22:38:28.267Z,100.00
2023-08-16T22:40:56.821Z,100.00
2023-08-16T22:43:24.672Z,100.00
2023-08-16T22:45:52.584Z,100.00
2023-08-16T22:48:20.730Z,100.00
2023-08-16T22:50:50.421Z,100.00
2023-08-16T22:53:18.551Z,100.00
2023-08-16T22:55:50.189Z,100.00
2023-08-16T22:58:18.104Z,100.00
2023-08-16T23:00:46.500Z,100.00
2023-08-16T23:03:14.317Z,100.00
2023-08-16T23:05:42.212Z,100.00
2023-08-16T23:08:10.493Z,100.00
2023-08-16T23:10:42.464Z,100.00
2023-08-16T23:13:10.567Z,100.00
2023-08-16T23:15:38.797Z,100.00
2023-08-16T23:18:06.832Z,100.00
2023-08-16T23:20:36.091Z,100.00
2023-08-16T23:23:04.325Z,100.00
2023-08-16T23:25:32.403Z,100.00
2023-08-16T23:28:00.552Z,100.00
2023-08-16T23:30:28.340Z,100.00
2023-08-16T23:32:57.470Z,100.00
2023-08-16T23:35:26.585Z,100.00
2023-08-16T23:37:54.447Z,100.00
2023-08-16T23:40:22.312Z,100.00
2023-08-16T23:42:53.413Z,100.00
2023-08-16T23:45:21.239Z,100.00
2023-08-16T23:47:49.998Z,100.00
2023-08-16T23:50:18.344Z,100.00
2023-08-16T23:52:47.948Z,100.00
2023-08-16T23:55:15.879Z,100.00
2023-08-16T23:57:44.007Z,100.00
